Rechercher aéroport 
image banner adimage banner adimage banner ad
image banner ad

29CA - Landells

Situé à Desert Hot Springs, United States

ICAO - 29CA, IATA -

Données fournies par Airmate  

Information générale

Coordonnées: N33°55'18" W116°27'12"
Élévation : 940 feet MSL.
Variation magnétique : 13° East
Voir autres Aéroports à California

Données opérationnelles

Special qualification required
Heure actuelle UTC:
Heure actuelle locale:
Météo à : KPSP - Palm Springs Intl ( 11 km )
METAR: KPSP 231453Z 00000KT 10SM CLR 29/12 A2986 RMK AO2 SLP106 T02940122 53006
TAF: KPSP 231125Z 2312/2412 30004KT P6SM BKN120 FM232000 11007KT P6SM SCT100 FM240300 32007KT P6SM SCT100
Voir NOTAMs / SUP AIP / TFR affectant cet aéroport [VIEW]
Fréquences de communication: [VIEW]

Pistes:

Coordonnées de l'aéroport

Adresse: Desert Hot Springs United States

Vue satellite de 29CA